sensor_id;sensor_type;location;lat;lon;timestamp;temperature;humidity
7512;DHT22;9999;48.780;9.146;2023-04-08T00:01:04;7.70;99.90
7512;DHT22;9999;48.780;9.146;2023-04-08T00:03:31;7.70;99.90
7512;DHT22;9999;48.780;9.146;2023-04-08T00:05:58;7.80;99.90
7512;DHT22;9999;48.780;9.146;2023-04-08T00:08:25;7.70;99.90
7512;DHT22;9999;48.780;9.146;2023-04-08T00:10:52;7.80;99.90
7512;DHT22;9999;48.780;9.146;2023-04-08T00:13:20;7.80;99.90
7512;DHT22;9999;48.780;9.146;2023-04-08T00:15:47;7.70;99.90
7512;DHT22;9999;48.780;9.146;2023-04-08T00:18:15;7.80;99.90
7512;DHT22;9999;48.780;9.146;2023-04-08T00:20:43;7.80;99.90
7512;DHT22;9999;48.780;9.146;2023-04-08T00:23:10;7.70;99.90
7512;DHT22;9999;48.780;9.146;2023-04-08T00:25:36;7.70;99.90
7512;DHT22;9999;48.780;9.146;2023-04-08T00:28:03;7.70;99.90
7512;DHT22;9999;48.780;9.146;2023-04-08T00:30:31;7.70;99.90
7512;DHT22;9999;48.780;9.146;2023-04-08T00:32:58;7.70;99.90
7512;DHT22;9999;48.780;9.146;2023-04-08T00:35:26;7.70;99.90
7512;DHT22;9999;48.780;9.146;2023-04-08T00:37:53;7.70;99.90
7512;DHT22;9999;48.780;9.146;2023-04-08T00:40:20;7.80;99.90
7512;DHT22;9999;48.780;9.146;2023-04-08T00:42:47;7.80;99.90
7512;DHT22;9999;48.780;9.146;2023-04-08T00:45:13;7.80;99.90
7512;DHT22;9999;48.780;9.146;2023-04-08T00:47:42;7.70;99.90
7512;DHT22;9999;48.780;9.146;2023-04-08T00:50:09;7.70;99.90
7512;DHT22;9999;48.780;9.146;2023-04-08T00:52:36;7.60;99.90
7512;DHT22;9999;48.780;9.146;2023-04-08T00:55:04;7.70;99.90
7512;DHT22;9999;48.780;9.146;2023-04-08T00:57:32;7.60;99.90
7512;DHT22;9999;48.780;9.146;2023-04-08T00:59:59;7.60;99.90
7512;DHT22;9999;48.780;9.146;2023-04-08T01:02:30;7.60;99.90
7512;DHT22;9999;48.780;9.146;2023-04-08T01:05:02;7.60;99.90
7512;DHT22;9999;48.780;9.146;2023-04-08T01:07:32;7.60;99.90
7512;DHT22;9999;48.780;9.146;2023-04-08T01:10:02;7.70;99.90
7512;DHT22;9999;48.780;9.146;2023-04-08T01:12:32;7.70;99.90
7512;DHT22;9999;48.780;9.146;2023-04-08T01:15:05;7.70;99.90
7512;DHT22;9999;48.780;9.146;2023-04-08T01:17:33;7.60;99.90
7512;DHT22;9999;48.780;9.146;2023-04-08T01:20:04;7.60;99.90
7512;DHT22;9999;48.780;9.146;2023-04-08T01:22:40;7.50;99.90
7512;DHT22;9999;48.780;9.146;2023-04-08T01:25:14;7.50;99.90
7512;DHT22;9999;48.780;9.146;2023-04-08T01:27:43;7.60;99.90
7512;DHT22;9999;48.780;9.146;2023-04-08T01:30:13;7.60;99.90
7512;DHT22;9999;48.780;9.146;2023-04-08T01:32:41;7.60;99.90
7512;DHT22;9999;48.780;9.146;2023-04-08T01:35:10;7.60;99.90
7512;DHT22;9999;48.780;9.146;2023-04-08T01:37:37;7.60;99.90
7512;DHT22;9999;48.780;9.146;2023-04-08T01:40:07;7.60;99.90
7512;DHT22;9999;48.780;9.146;2023-04-08T01:42:37;7.60;99.90
7512;DHT22;9999;48.780;9.146;2023-04-08T01:45:06;7.50;99.90
7512;DHT22;9999;48.780;9.146;2023-04-08T01:47:36;7.50;99.90
7512;DHT22;9999;48.780;9.146;2023-04-08T01:50:05;7.50;99.90
7512;DHT22;9999;48.780;9.146;2023-04-08T01:52:34;7.40;99.90
7512;DHT22;9999;48.780;9.146;2023-04-08T01:55:03;7.40;99.90
7512;DHT22;9999;48.780;9.146;2023-04-08T01:57:32;7.40;99.90
7512;DHT22;9999;48.780;9.146;2023-04-08T02:00:02;7.40;99.90
7512;DHT22;9999;48.780;9.146;2023-04-08T02:02:46;7.40;99.90
7512;DHT22;9999;48.780;9.146;2023-04-08T02:05:14;7.40;99.90
7512;DHT22;9999;48.780;9.146;2023-04-08T02:07:41;7.40;99.90
7512;DHT22;9999;48.780;9.146;2023-04-08T02:10:10;7.40;99.90
7512;DHT22;9999;48.780;9.146;2023-04-08T02:12:37;7.40;99.90
7512;DHT22;9999;48.780;9.146;2023-04-08T02:15:09;7.40;99.90
7512;DHT22;9999;48.780;9.146;2023-04-08T02:17:43;7.40;99.90
7512;DHT22;9999;48.780;9.146;2023-04-08T02:20:16;7.30;99.90
7512;DHT22;9999;48.780;9.146;2023-04-08T02:22:47;7.40;99.90
7512;DHT22;9999;48.780;9.146;2023-04-08T02:25:16;7.30;99.90
7512;DHT22;9999;48.780;9.146;2023-04-08T02:27:47;7.40;99.90
7512;DHT22;9999;48.780;9.146;2023-04-08T02:30:16;7.40;99.90
7512;DHT22;9999;48.780;9.146;2023-04-08T02:32:44;7.40;99.90
7512;DHT22;9999;48.780;9.146;2023-04-08T02:35:13;7.40;99.90
7512;DHT22;9999;48.780;9.146;2023-04-08T02:37:41;7.40;99.90
7512;DHT22;9999;48.780;9.146;2023-04-08T02:40:24;7.50;99.90
7512;DHT22;9999;48.780;9.146;2023-04-08T02:42:51;7.40;99.90
7512;DHT22;9999;48.780;9.146;2023-04-08T02:45:18;7.30;99.90
7512;DHT22;9999;48.780;9.146;2023-04-08T02:47:45;7.40;99.90
7512;DHT22;9999;48.780;9.146;2023-04-08T02:50:13;7.30;99.90
7512;DHT22;9999;48.780;9.146;2023-04-08T02:52:40;7.30;99.90
7512;DHT22;9999;48.780;9.146;2023-04-08T02:55:08;7.20;99.90
7512;DHT22;9999;48.780;9.146;2023-04-08T02:57:35;7.30;99.90
7512;DHT22;9999;48.780;9.146;2023-04-08T03:00:03;7.30;99.90
7512;DHT22;9999;48.780;9.146;2023-04-08T03:02:30;7.30;99.90
7512;DHT22;9999;48.780;9.146;2023-04-08T03:04:57;7.30;99.90
7512;DHT22;9999;48.780;9.146;2023-04-08T03:07:26;7.30;99.90
7512;DHT22;9999;48.780;9.146;2023-04-08T03:09:53;7.20;99.90
7512;DHT22;9999;48.780;9.146;2023-04-08T03:12:20;7.20;99.90
7512;DHT22;9999;48.780;9.146;2023-04-08T03:14:47;7.20;99.90
7512;DHT22;9999;48.780;9.146;2023-04-08T03:17:14;7.20;99.90
7512;DHT22;9999;48.780;9.146;2023-04-08T03:19:41;7.20;99.90
7512;DHT22;9999;48.780;9.146;2023-04-08T03:22:08;7.20;99.90
7512;DHT22;9999;48.780;9.146;2023-04-08T03:24:36;7.20;99.90
7512;DHT22;9999;48.780;9.146;2023-04-08T03:27:03;7.20;99.90
7512;DHT22;9999;48.780;9.146;2023-04-08T03:29:30;7.20;99.90
7512;DHT22;9999;48.780;9.146;2023-04-08T03:31:57;7.20;99.90
7512;DHT22;9999;48.780;9.146;2023-04-08T03:34:24;7.20;99.90
7512;DHT22;9999;48.780;9.146;2023-04-08T03:36:51;7.30;99.90
7512;DHT22;9999;48.780;9.146;2023-04-08T03:39:18;7.20;99.90
7512;DHT22;9999;48.780;9.146;2023-04-08T03:41:46;7.20;99.90
7512;DHT22;9999;48.780;9.146;2023-04-08T03:44:13;7.30;99.90
7512;DHT22;9999;48.780;9.146;2023-04-08T03:46:40;7.30;99.90
7512;DHT22;9999;48.780;9.146;2023-04-08T03:49:06;7.30;99.90
7512;DHT22;9999;48.780;9.146;2023-04-08T03:51:33;7.30;99.90
7512;DHT22;9999;48.780;9.146;2023-04-08T03:54:00;7.30;99.90
7512;DHT22;9999;48.780;9.146;2023-04-08T03:56:27;7.30;99.90
7512;DHT22;9999;48.780;9.146;2023-04-08T03:58:55;7.30;99.90
7512;DHT22;9999;48.780;9.146;2023-04-08T04:01:22;7.20;99.90
7512;DHT22;9999;48.780;9.146;2023-04-08T04:03:49;7.20;99.90
7512;DHT22;9999;48.780;9.146;2023-04-08T04:06:16;7.20;99.90
7512;DHT22;9999;48.780;9.146;2023-04-08T04:08:43;7.30;99.90
7512;DHT22;9999;48.780;9.146;2023-04-08T04:11:09;7.30;99.90
7512;DHT22;9999;48.780;9.146;2023-04-08T04:13:36;7.20;99.90
7512;DHT22;9999;48.780;9.146;2023-04-08T04:16:05;7.20;99.90
7512;DHT22;9999;48.780;9.146;2023-04-08T04:18:32;7.30;99.90
7512;DHT22;9999;48.780;9.146;2023-04-08T04:20:59;7.20;99.90
7512;DHT22;9999;48.780;9.146;2023-04-08T04:23:26;7.20;99.90
7512;DHT22;9999;48.780;9.146;2023-04-08T04:25:53;7.00;99.90
7512;DHT22;9999;48.780;9.146;2023-04-08T04:28:20;7.10;99.90
7512;DHT22;9999;48.780;9.146;2023-04-08T04:30:46;7.00;99.90
7512;DHT22;9999;48.780;9.146;2023-04-08T04:33:15;7.00;99.90
7512;DHT22;9999;48.780;9.146;2023-04-08T04:35:42;7.10;99.90
7512;DHT22;9999;48.780;9.146;2023-04-08T04:38:09;7.00;99.90
7512;DHT22;9999;48.780;9.146;2023-04-08T04:40:37;7.00;99.90
7512;DHT22;9999;48.780;9.146;2023-04-08T04:43:04;6.90;99.90
7512;DHT22;9999;48.780;9.146;2023-04-08T04:45:31;6.90;99.90
7512;DHT22;9999;48.780;9.146;2023-04-08T04:47:58;6.80;99.90
7512;DHT22;9999;48.780;9.146;2023-04-08T04:50:26;6.90;99.90
7512;DHT22;9999;48.780;9.146;2023-04-08T04:52:53;6.90;99.90
7512;DHT22;9999;48.780;9.146;2023-04-08T04:55:20;6.80;99.90
7512;DHT22;9999;48.780;9.146;2023-04-08T04:57:48;6.70;99.90
7512;DHT22;9999;48.780;9.146;2023-04-08T05:00:15;6.80;99.90
7512;DHT22;9999;48.780;9.146;2023-04-08T05:02:42;6.70;99.90
7512;DHT22;9999;48.780;9.146;2023-04-08T05:05:08;6.80;99.90
7512;DHT22;9999;48.780;9.146;2023-04-08T05:07:37;6.80;99.90
7512;DHT22;9999;48.780;9.146;2023-04-08T05:10:04;6.70;99.90
7512;DHT22;9999;48.780;9.146;2023-04-08T05:12:31;6.70;99.90
7512;DHT22;9999;48.780;9.146;2023-04-08T05:14:58;6.80;99.90
7512;DHT22;9999;48.780;9.146;2023-04-08T05:17:25;6.80;99.90
7512;DHT22;9999;48.780;9.146;2023-04-08T05:19:52;6.80;99.90
7512;DHT22;9999;48.780;9.146;2023-04-08T05:22:19;6.80;99.90
7512;DHT22;9999;48.780;9.146;2023-04-08T05:24:47;6.70;99.90
7512;DHT22;9999;48.780;9.146;2023-04-08T05:27:14;6.80;99.90
7512;DHT22;9999;48.780;9.146;2023-04-08T05:29:41;6.70;99.90
7512;DHT22;9999;48.780;9.146;2023-04-08T05:32:08;6.80;99.90
7512;DHT22;9999;48.780;9.146;2023-04-08T05:34:35;6.70;99.90
7512;DHT22;9999;48.780;9.146;2023-04-08T05:37:02;6.80;99.90
7512;DHT22;9999;48.780;9.146;2023-04-08T05:39:29;6.90;99.90
7512;DHT22;9999;48.780;9.146;2023-04-08T05:41:57;6.90;99.90
7512;DHT22;9999;48.780;9.146;2023-04-08T05:44:24;6.90;99.90
7512;DHT22;9999;48.780;9.146;2023-04-08T05:46:50;6.90;99.90
7512;DHT22;9999;48.780;9.146;2023-04-08T05:49:17;6.90;99.90
7512;DHT22;9999;48.780;9.146;2023-04-08T05:51:44;6.80;99.90
7512;DHT22;9999;48.780;9.146;2023-04-08T05:54:11;6.90;99.90
7512;DHT22;9999;48.780;9.146;2023-04-08T05:56:38;6.90;99.90
7512;DHT22;9999;48.780;9.146;2023-04-08T05:59:06;6.90;99.90
7512;DHT22;9999;48.780;9.146;2023-04-08T06:01:33;7.00;99.90
7512;DHT22;9999;48.780;9.146;2023-04-08T06:04:00;7.00;99.90
7512;DHT22;9999;48.780;9.146;2023-04-08T06:06:27;7.00;99.90
7512;DHT22;9999;48.780;9.146;2023-04-08T06:08:54;7.00;99.90
7512;DHT22;9999;48.780;9.146;2023-04-08T06:11:20;7.00;99.90
7512;DHT22;9999;48.780;9.146;2023-04-08T06:13:47;7.00;99.90
7512;DHT22;9999;48.780;9.146;2023-04-08T06:16:16;7.00;99.90
7512;DHT22;9999;48.780;9.146;2023-04-08T06:18:42;7.00;99.90
7512;DHT22;9999;48.780;9.146;2023-04-08T06:21:10;7.00;99.90
7512;DHT22;9999;48.780;9.146;2023-04-08T06:23:37;7.10;99.90
7512;DHT22;9999;48.780;9.146;2023-04-08T06:26:03;7.20;99.90
7512;DHT22;9999;48.780;9.146;2023-04-08T06:28:31;7.10;99.90
7512;DHT22;9999;48.780;9.146;2023-04-08T06:30:58;7.20;99.90
7512;DHT22;9999;48.780;9.146;2023-04-08T06:33:27;7.20;99.90
7512;DHT22;9999;48.780;9.146;2023-04-08T06:36:01;7.20;99.90
7512;DHT22;9999;48.780;9.146;2023-04-08T06:38:28;7.20;99.90
7512;DHT22;9999;48.780;9.146;2023-04-08T06:40:55;7.20;99.90
7512;DHT22;9999;48.780;9.146;2023-04-08T06:43:22;7.20;99.90
7512;DHT22;9999;48.780;9.146;2023-04-08T06:45:49;7.20;99.90
7512;DHT22;9999;48.780;9.146;2023-04-08T06:48:16;7.20;99.90
7512;DHT22;9999;48.780;9.146;2023-04-08T06:50:45;7.20;99.90
7512;DHT22;9999;48.780;9.146;2023-04-08T06:53:12;7.20;99.90
7512;DHT22;9999;48.780;9.146;2023-04-08T06:55:38;7.20;99.90
7512;DHT22;9999;48.780;9.146;2023-04-08T06:58:05;7.20;99.90
7512;DHT22;9999;48.780;9.146;2023-04-08T07:00:32;7.20;99.90
7512;DHT22;9999;48.780;9.146;2023-04-08T07:02:59;7.20;99.90
7512;DHT22;9999;48.780;9.146;2023-04-08T07:05:26;7.30;99.90
7512;DHT22;9999;48.780;9.146;2023-04-08T07:07:54;7.30;99.90
7512;DHT22;9999;48.780;9.146;2023-04-08T07:10:21;7.30;99.90
7512;DHT22;9999;48.780;9.146;2023-04-08T07:12:48;7.30;99.90
7512;DHT22;9999;48.780;9.146;2023-04-08T07:15:15;7.40;99.90
7512;DHT22;9999;48.780;9.146;2023-04-08T07:17:42;7.40;99.90
7512;DHT22;9999;48.780;9.146;2023-04-08T07:20:10;7.40;99.90
7512;DHT22;9999;48.780;9.146;2023-04-08T07:22:38;7.40;99.90
7512;DHT22;9999;48.780;9.146;2023-04-08T07:25:07;7.50;99.90
7512;DHT22;9999;48.780;9.146;2023-04-08T07:27:34;7.50;99.90
7512;DHT22;9999;48.780;9.146;2023-04-08T07:30:01;7.50;99.90
7512;DHT22;9999;48.780;9.146;2023-04-08T07:32:28;7.50;99.90
7512;DHT22;9999;48.780;9.146;2023-04-08T07:34:55;7.60;99.90
7512;DHT22;9999;48.780;9.146;2023-04-08T07:37:22;7.60;99.90
7512;DHT22;9999;48.780;9.146;2023-04-08T07:39:49;7.70;99.90
7512;DHT22;9999;48.780;9.146;2023-04-08T07:42:17;7.80;99.90
7512;DHT22;9999;48.780;9.146;2023-04-08T07:44:44;7.80;99.90
7512;DHT22;9999;48.780;9.146;2023-04-08T07:47:11;8.00;99.90
7512;DHT22;9999;48.780;9.146;2023-04-08T07:49:38;8.00;99.90
7512;DHT22;9999;48.780;9.146;2023-04-08T07:52:06;8.10;99.90
7512;DHT22;9999;48.780;9.146;2023-04-08T07:54:33;8.20;99.90
7512;DHT22;9999;48.780;9.146;2023-04-08T07:57:00;8.30;99.90
7512;DHT22;9999;48.780;9.146;2023-04-08T07:59:28;8.30;99.90
7512;DHT22;9999;48.780;9.146;2023-04-08T08:01:55;8.20;99.90
7512;DHT22;9999;48.780;9.146;2023-04-08T08:04:22;8.20;99.90
7512;DHT22;9999;48.780;9.146;2023-04-08T08:06:50;8.20;99.90
7512;DHT22;9999;48.780;9.146;2023-04-08T08:09:17;8.30;99.90
7512;DHT22;9999;48.780;9.146;2023-04-08T08:11:44;8.40;99.90
7512;DHT22;9999;48.780;9.146;2023-04-08T08:14:11;8.40;99.90
7512;DHT22;9999;48.780;9.146;2023-04-08T08:16:39;8.50;99.90
7512;DHT22;9999;48.780;9.146;2023-04-08T08:19:07;8.50;99.90
7512;DHT22;9999;48.780;9.146;2023-04-08T08:21:35;8.50;99.90
7512;DHT22;9999;48.780;9.146;2023-04-08T08:24:02;8.60;99.90
7512;DHT22;9999;48.780;9.146;2023-04-08T08:26:29;8.70;99.90
7512;DHT22;9999;48.780;9.146;2023-04-08T08:28:56;8.60;99.90
7512;DHT22;9999;48.780;9.146;2023-04-08T08:31:23;8.70;99.90
7512;DHT22;9999;48.780;9.146;2023-04-08T08:33:51;8.70;99.90
7512;DHT22;9999;48.780;9.146;2023-04-08T08:36:18;8.80;99.90
7512;DHT22;9999;48.780;9.146;2023-04-08T08:38:45;8.90;99.90
7512;DHT22;9999;48.780;9.146;2023-04-08T08:41:12;8.90;99.90
7512;DHT22;9999;48.780;9.146;2023-04-08T08:43:40;8.90;99.90
7512;DHT22;9999;48.780;9.146;2023-04-08T08:46:09;8.90;99.90
7512;DHT22;9999;48.780;9.146;2023-04-08T08:48:37;8.90;99.90
7512;DHT22;9999;48.780;9.146;2023-04-08T08:51:09;8.90;99.90
7512;DHT22;9999;48.780;9.146;2023-04-08T08:53:36;9.00;99.90
7512;DHT22;9999;48.780;9.146;2023-04-08T08:56:03;9.10;99.90
7512;DHT22;9999;48.780;9.146;2023-04-08T08:58:31;9.30;99.90
7512;DHT22;9999;48.780;9.146;2023-04-08T09:00:58;9.40;99.90
7512;DHT22;9999;48.780;9.146;2023-04-08T09:03:26;9.40;99.90
7512;DHT22;9999;48.780;9.146;2023-04-08T09:05:54;9.50;99.90
7512;DHT22;9999;48.780;9.146;2023-04-08T09:08:27;9.60;99.90
7512;DHT22;9999;48.780;9.146;2023-04-08T09:10:55;9.80;99.90
7512;DHT22;9999;48.780;9.146;2023-04-08T09:13:22;9.80;99.90
7512;DHT22;9999;48.780;9.146;2023-04-08T09:16:00;9.90;99.90
7512;DHT22;9999;48.780;9.146;2023-04-08T09:18:28;9.90;99.90
7512;DHT22;9999;48.780;9.146;2023-04-08T09:20:55;9.70;99.90
7512;DHT22;9999;48.780;9.146;2023-04-08T09:23:22;9.80;99.90
7512;DHT22;9999;48.780;9.146;2023-04-08T09:25:50;9.90;99.90
7512;DHT22;9999;48.780;9.146;2023-04-08T09:28:20;9.90;99.90
7512;DHT22;9999;48.780;9.146;2023-04-08T09:30:47;9.80;99.90
7512;DHT22;9999;48.780;9.146;2023-04-08T09:33:14;9.90;99.90
7512;DHT22;9999;48.780;9.146;2023-04-08T09:35:42;10.00;99.90
7512;DHT22;9999;48.780;9.146;2023-04-08T09:38:11;10.10;99.90
7512;DHT22;9999;48.780;9.146;2023-04-08T09:40:39;10.20;99.90
7512;DHT22;9999;48.780;9.146;2023-04-08T09:43:08;10.40;99.90
7512;DHT22;9999;48.780;9.146;2023-04-08T09:45:38;10.40;99.90
7512;DHT22;9999;48.780;9.146;2023-04-08T09:48:11;10.30;99.90
7512;DHT22;9999;48.780;9.146;2023-04-08T09:50:42;10.30;99.90
7512;DHT22;9999;48.780;9.146;2023-04-08T09:53:12;10.30;99.90
7512;DHT22;9999;48.780;9.146;2023-04-08T09:55:42;10.50;99.90
7512;DHT22;9999;48.780;9.146;2023-04-08T09:58:19;10.60;99.90
7512;DHT22;9999;48.780;9.146;2023-04-08T10:00:49;10.60;99.90
7512;DHT22;9999;48.780;9.146;2023-04-08T10:03:25;10.70;99.90
7512;DHT22;9999;48.780;9.146;2023-04-08T10:05:53;10.80;99.90
7512;DHT22;9999;48.780;9.146;2023-04-08T10:08:21;10.90;99.90
7512;DHT22;9999;48.780;9.146;2023-04-08T10:10:49;10.90;99.90
7512;DHT22;9999;48.780;9.146;2023-04-08T10:13:17;10.80;99.90
7512;DHT22;9999;48.780;9.146;2023-04-08T10:15:45;10.80;99.90
7512;DHT22;9999;48.780;9.146;2023-04-08T10:18:30;11.10;99.90
7512;DHT22;9999;48.780;9.146;2023-04-08T10:20:58;11.30;99.90
7512;DHT22;9999;48.780;9.146;2023-04-08T10:23:51;11.30;99.90
7512;DHT22;9999;48.780;9.146;2023-04-08T10:26:30;11.20;99.90
7512;DHT22;9999;48.780;9.146;2023-04-08T10:31:51;11.20;99.90
7512;DHT22;9999;48.780;9.146;2023-04-08T10:34:18;10.80;99.90
7512;DHT22;9999;48.780;9.146;2023-04-08T10:36:46;10.80;99.90
7512;DHT22;9999;48.780;9.146;2023-04-08T10:39:13;10.70;99.90
7512;DHT22;9999;48.780;9.146;2023-04-08T10:41:41;10.50;99.90
7512;DHT22;9999;48.780;9.146;2023-04-08T10:44:14;10.40;99.90
7512;DHT22;9999;48.780;9.146;2023-04-08T10:46:42;10.50;99.90
7512;DHT22;9999;48.780;9.146;2023-04-08T10:49:10;10.50;99.90
7512;DHT22;9999;48.780;9.146;2023-04-08T10:51:37;10.50;99.90
7512;DHT22;9999;48.780;9.146;2023-04-08T10:54:05;10.50;99.90
7512;DHT22;9999;48.780;9.146;2023-04-08T10:56:32;10.50;99.90
7512;DHT22;9999;48.780;9.146;2023-04-08T10:58:58;10.50;99.90
7512;DHT22;9999;48.780;9.146;2023-04-08T11:01:25;10.50;99.90
7512;DHT22;9999;48.780;9.146;2023-04-08T11:03:53;10.50;99.90
7512;DHT22;9999;48.780;9.146;2023-04-08T11:06:22;10.50;99.90
7512;DHT22;9999;48.780;9.146;2023-04-08T11:08:49;10.40;99.90
7512;DHT22;9999;48.780;9.146;2023-04-08T11:11:18;10.40;99.90
7512;DHT22;9999;48.780;9.146;2023-04-08T11:13:45;10.30;99.90
7512;DHT22;9999;48.780;9.146;2023-04-08T11:16:13;10.40;99.90
7512;DHT22;9999;48.780;9.146;2023-04-08T11:18:40;10.40;99.90
7512;DHT22;9999;48.780;9.146;2023-04-08T11:21:08;10.40;99.90
7512;DHT22;9999;48.780;9.146;2023-04-08T11:23:36;10.30;99.90
7512;DHT22;9999;48.780;9.146;2023-04-08T11:26:03;10.30;99.90
7512;DHT22;9999;48.780;9.146;2023-04-08T11:28:31;10.30;99.90
7512;DHT22;9999;48.780;9.146;2023-04-08T11:30:58;10.40;99.90
7512;DHT22;9999;48.780;9.146;2023-04-08T11:33:25;10.40;99.90
7512;DHT22;9999;48.780;9.146;2023-04-08T11:35:53;10.40;99.90
7512;DHT22;9999;48.780;9.146;2023-04-08T11:38:22;10.40;99.90
7512;DHT22;9999;48.780;9.146;2023-04-08T11:40:53;10.40;99.90
7512;DHT22;9999;48.780;9.146;2023-04-08T11:43:20;10.30;99.90
7512;DHT22;9999;48.780;9.146;2023-04-08T11:45:46;10.20;99.90
7512;DHT22;9999;48.780;9.146;2023-04-08T11:48:14;10.20;99.90
7512;DHT22;9999;48.780;9.146;2023-04-08T11:50:43;10.10;99.90
7512;DHT22;9999;48.780;9.146;2023-04-08T11:53:16;10.10;99.90
7512;DHT22;9999;48.780;9.146;2023-04-08T11:55:44;10.10;99.90
7512;DHT22;9999;48.780;9.146;2023-04-08T11:58:12;10.00;99.90
7512;DHT22;9999;48.780;9.146;2023-04-08T12:00:40;10.10;99.90
7512;DHT22;9999;48.780;9.146;2023-04-08T12:03:07;10.10;99.90
7512;DHT22;9999;48.780;9.146;2023-04-08T12:05:35;10.20;99.90
7512;DHT22;9999;48.780;9.146;2023-04-08T12:08:02;10.20;99.90
7512;DHT22;9999;48.780;9.146;2023-04-08T12:10:29;10.30;99.90
7512;DHT22;9999;48.780;9.146;2023-04-08T12:12:55;10.20;99.90
7512;DHT22;9999;48.780;9.146;2023-04-08T12:15:23;10.20;99.90
7512;DHT22;9999;48.780;9.146;2023-04-08T12:17:50;10.20;99.90
7512;DHT22;9999;48.780;9.146;2023-04-08T12:20:17;10.20;99.90
7512;DHT22;9999;48.780;9.146;2023-04-08T12:22:44;10.20;99.90
7512;DHT22;9999;48.780;9.146;2023-04-08T12:25:11;10.20;99.90
7512;DHT22;9999;48.780;9.146;2023-04-08T12:27:38;10.20;99.90
7512;DHT22;9999;48.780;9.146;2023-04-08T12:30:06;10.20;99.90
7512;DHT22;9999;48.780;9.146;2023-04-08T12:32:34;10.20;99.90
7512;DHT22;9999;48.780;9.146;2023-04-08T12:35:01;10.30;99.90
7512;DHT22;9999;48.780;9.146;2023-04-08T12:37:28;10.30;99.90
7512;DHT22;9999;48.780;9.146;2023-04-08T12:39:55;10.30;99.90
7512;DHT22;9999;48.780;9.146;2023-04-08T12:42:21;10.30;99.90
7512;DHT22;9999;48.780;9.146;2023-04-08T12:44:48;10.40;99.90
7512;DHT22;9999;48.780;9.146;2023-04-08T12:47:15;10.40;99.90
7512;DHT22;9999;48.780;9.146;2023-04-08T12:49:43;10.40;99.90
7512;DHT22;9999;48.780;9.146;2023-04-08T12:52:10;10.30;99.90
7512;DHT22;9999;48.780;9.146;2023-04-08T12:54:37;10.30;99.90
7512;DHT22;9999;48.780;9.146;2023-04-08T12:57:05;10.20;99.90
7512;DHT22;9999;48.780;9.146;2023-04-08T12:59:32;10.20;99.90
7512;DHT22;9999;48.780;9.146;2023-04-08T13:01:58;10.30;99.90
7512;DHT22;9999;48.780;9.146;2023-04-08T13:04:25;10.20;99.90
7512;DHT22;9999;48.780;9.146;2023-04-08T13:06:53;10.20;99.90
7512;DHT22;9999;48.780;9.146;2023-04-08T13:09:21;10.20;99.90
7512;DHT22;9999;48.780;9.146;2023-04-08T13:11:48;10.10;99.90
7512;DHT22;9999;48.780;9.146;2023-04-08T13:14:15;10.10;99.90
7512;DHT22;9999;48.780;9.146;2023-04-08T13:16:42;10.10;99.90
7512;DHT22;9999;48.780;9.146;2023-04-08T13:19:09;10.10;99.90
7512;DHT22;9999;48.780;9.146;2023-04-08T13:21:36;10.10;99.90
7512;DHT22;9999;48.780;9.146;2023-04-08T13:24:04;10.20;99.90
7512;DHT22;9999;48.780;9.146;2023-04-08T13:26:31;10.20;99.90
7512;DHT22;9999;48.780;9.146;2023-04-08T13:28:58;10.20;99.90
7512;DHT22;9999;48.780;9.146;2023-04-08T13:31:25;10.20;99.90
7512;DHT22;9999;48.780;9.146;2023-04-08T13:33:52;10.20;99.90
7512;DHT22;9999;48.780;9.146;2023-04-08T13:36:18;10.20;99.90
7512;DHT22;9999;48.780;9.146;2023-04-08T13:38:45;10.30;99.90
7512;DHT22;9999;48.780;9.146;2023-04-08T13:41:13;10.20;99.90
7512;DHT22;9999;48.780;9.146;2023-04-08T13:43:40;10.20;99.90
7512;DHT22;9999;48.780;9.146;2023-04-08T13:46:07;10.10;99.90
7512;DHT22;9999;48.780;9.146;2023-04-08T13:48:34;10.10;99.90
7512;DHT22;9999;48.780;9.146;2023-04-08T13:51:01;10.20;99.90
7512;DHT22;9999;48.780;9.146;2023-04-08T13:53:28;10.30;99.90
7512;DHT22;9999;48.780;9.146;2023-04-08T13:55:54;10.30;99.90
7512;DHT22;9999;48.780;9.146;2023-04-08T13:58:24;10.30;99.90
7512;DHT22;9999;48.780;9.146;2023-04-08T14:00:51;10.30;99.90
7512;DHT22;9999;48.780;9.146;2023-04-08T14:03:18;10.40;99.90
7512;DHT22;9999;48.780;9.146;2023-04-08T14:05:45;10.40;99.90
7512;DHT22;9999;48.780;9.146;2023-04-08T14:08:11;10.40;99.90
7512;DHT22;9999;48.780;9.146;2023-04-08T14:10:38;10.40;99.90
7512;DHT22;9999;48.780;9.146;2023-04-08T14:13:06;10.50;99.90
7512;DHT22;9999;48.780;9.146;2023-04-08T14:15:34;10.40;99.90
7512;DHT22;9999;48.780;9.146;2023-04-08T14:18:01;10.40;99.90
7512;DHT22;9999;48.780;9.146;2023-04-08T14:20:28;10.50;99.90
7512;DHT22;9999;48.780;9.146;2023-04-08T14:22:55;10.50;99.90
7512;DHT22;9999;48.780;9.146;2023-04-08T14:25:22;10.50;99.90
7512;DHT22;9999;48.780;9.146;2023-04-08T14:27:48;10.60;99.90
7512;DHT22;9999;48.780;9.146;2023-04-08T14:30:15;10.70;99.90
7512;DHT22;9999;48.780;9.146;2023-04-08T14:32:43;10.80;99.90
7512;DHT22;9999;48.780;9.146;2023-04-08T14:35:10;10.80;99.90
7512;DHT22;9999;48.780;9.146;2023-04-08T14:37:37;10.70;99.90
7512;DHT22;9999;48.780;9.146;2023-04-08T14:40:06;10.70;99.90
7512;DHT22;9999;48.780;9.146;2023-04-08T14:42:33;10.70;99.90
7512;DHT22;9999;48.780;9.146;2023-04-08T14:44:59;10.60;99.90
7512;DHT22;9999;48.780;9.146;2023-04-08T14:47:26;10.60;99.90
7512;DHT22;9999;48.780;9.146;2023-04-08T14:49:54;10.50;99.90
7512;DHT22;9999;48.780;9.146;2023-04-08T14:52:21;10.60;99.90
7512;DHT22;9999;48.780;9.146;2023-04-08T14:54:49;10.50;99.90
7512;DHT22;9999;48.780;9.146;2023-04-08T14:57:16;10.50;99.90
7512;DHT22;9999;48.780;9.146;2023-04-08T14:59:44;10.40;99.90
7512;DHT22;9999;48.780;9.146;2023-04-08T15:02:10;10.40;99.90
7512;DHT22;9999;48.780;9.146;2023-04-08T15:04:37;10.40;99.90
7512;DHT22;9999;48.780;9.146;2023-04-08T15:07:05;10.40;99.90
7512;DHT22;9999;48.780;9.146;2023-04-08T15:09:32;10.40;99.90
7512;DHT22;9999;48.780;9.146;2023-04-08T15:11:59;10.50;99.90
7512;DHT22;9999;48.780;9.146;2023-04-08T15:14:26;10.40;99.90
7512;DHT22;9999;48.780;9.146;2023-04-08T15:16:53;10.40;99.90
7512;DHT22;9999;48.780;9.146;2023-04-08T15:19:19;10.40;99.90
7512;DHT22;9999;48.780;9.146;2023-04-08T15:21:46;10.40;99.90
7512;DHT22;9999;48.780;9.146;2023-04-08T15:24:14;10.40;99.90
7512;DHT22;9999;48.780;9.146;2023-04-08T15:26:41;10.40;99.90
7512;DHT22;9999;48.780;9.146;2023-04-08T15:29:08;10.30;99.90
7512;DHT22;9999;48.780;9.146;2023-04-08T15:31:34;10.30;99.90
7512;DHT22;9999;48.780;9.146;2023-04-08T15:34:01;10.30;99.90
7512;DHT22;9999;48.780;9.146;2023-04-08T15:36:28;10.40;99.90
7512;DHT22;9999;48.780;9.146;2023-04-08T15:38:55;10.40;99.90
7512;DHT22;9999;48.780;9.146;2023-04-08T15:41:23;10.40;99.90
7512;DHT22;9999;48.780;9.146;2023-04-08T15:43:51;10.40;99.90
7512;DHT22;9999;48.780;9.146;2023-04-08T15:46:19;10.30;99.90
7512;DHT22;9999;48.780;9.146;2023-04-08T15:48:46;10.20;99.90
7512;DHT22;9999;48.780;9.146;2023-04-08T15:51:13;10.20;99.90
7512;DHT22;9999;48.780;9.146;2023-04-08T15:53:41;10.20;99.90
7512;DHT22;9999;48.780;9.146;2023-04-08T15:56:11;10.20;99.90
7512;DHT22;9999;48.780;9.146;2023-04-08T15:58:40;10.20;99.90
7512;DHT22;9999;48.780;9.146;2023-04-08T16:01:07;10.20;99.90
7512;DHT22;9999;48.780;9.146;2023-04-08T16:03:34;10.20;99.90
7512;DHT22;9999;48.780;9.146;2023-04-08T16:06:01;10.10;99.90
7512;DHT22;9999;48.780;9.146;2023-04-08T16:08:28;10.10;99.90
7512;DHT22;9999;48.780;9.146;2023-04-08T16:10:58;10.10;99.90
7512;DHT22;9999;48.780;9.146;2023-04-08T16:13:26;10.00;99.90
7512;DHT22;9999;48.780;9.146;2023-04-08T16:15:55;10.00;99.90
7512;DHT22;9999;48.780;9.146;2023-04-08T16:18:22;10.00;99.90